Hlavní strana
METAR-TAF:

METAR-TAF

Letiště :

Letiště Memphis

Memphis, Tennessee, Spojené státy americké

zeměpisná šířka: 35-03-40N, zeměpisná délka: 089-59-06W, výška: 101 m

Aktuální stav počasí

Zpráva byla vytvořena před 49 minutami, v 10:54 UTC
Východní vítr 3 kt
Teplota 4°C
Vlhkost vzduchu 65%
Tlak 1028 hPa
Viditelnost: 16.1 km
Jasno

METAR: KMEM 071054Z 10003KT 10SM CLR 04/M02 A3037 RMK AO2 SLP284 T00441022 $

Čas: 05:43 (11:43 UTC)

Předpověď počasí

Zpráva byla vytvořena před 20 minutami, v 11:23 UTC
Předpověď platná od 07 v 12 UTC do 08 v 18 UTC
vítr z různých směrů 3 kt
Viditelnost: 10 km
Jasno
Od 07 v 1700 UTC
Jihojihovýchodní vítr 5 kt
Viditelnost: 10 km
Skoro jasno ve výšce 25000 ft
Od 08 v 0100 UTC
Jižní vítr 3 kt
Viditelnost: 10 km
Jasno

TAF: KMEM 071123Z 0712/0818 VRB03KT P6SM SKC FM071700 16005KT P6SM FEW250 FM080100 18003KT P6SM SKC

Stav a předpovědi počasí z více než 4 000 letišť (zprávy METAR a TAF).

Červené a žluté tečky na mapě představují dostupné meteorologické stanice.

Když kurzor umístíte na tečku, zobrazí se název stanice.

Pak kliknutím zobrazíte stav a předpověď počasí.

Chcete-li změnit mapu, kliknutím na zelené tlačítko se znaménkem +mapu přiblížíte, kliknutím na zelené tlačítko se znaménkem – mapu oddálíte a kliknutím na zelené šipky přejdete na sousední mapy.


METAR-TAF: